Time;durP1;ratioP1;P1;durP2;ratioP2;P2;SDS_P1;SDS_P2;PMS_P1;PMS_P2;Temp;Humidity;BMP_temperature;BMP_pressure;BME280_temperature;BME280_humidity;BME280_pressure;Samples;Min_cycle;Max_cycle;Signal;HPM_P1;HPM_P2
2021/11/05 00:00:50;;;;;;;1.63;1.53;;;8.00;1.00;;;;;;5040043;28;20459;-79
2021/11/05 00:03:18;;;;;;;1.80;1.63;;;8.00;99.90;;;;;;5043860;28;20883;-79
2021/11/05 00:05:46;;;;;;;1.87;1.53;;;8.10;99.90;;;;;;5046684;28;20457;-79
2021/11/05 00:08:14;;;;;;;1.83;1.73;;;8.10;99.90;;;;;;5047342;28;20470;-78
2021/11/05 00:10:44;;;;;;;1.30;1.20;;;8.00;99.90;;;;;;5050566;28;20452;-79
2021/11/05 00:13:14;;;;;;;1.50;1.40;;;7.90;1.00;;;;;;5048820;28;20834;-80
2021/11/05 00:15:42;;;;;;;1.90;1.80;;;7.80;1.00;;;;;;5050745;28;20456;-80
2021/11/05 00:18:10;;;;;;;1.60;1.50;;;7.80;1.00;;;;;;5048492;28;20460;-79
2021/11/05 00:20:38;;;;;;;2.60;1.50;;;7.50;99.90;;;;;;5047295;28;20498;-79
2021/11/05 00:23:10;;;;;;;1.50;1.40;;;7.50;99.90;;;;;;5040265;28;21018;-80
2021/11/05 00:25:38;;;;;;;2.10;1.70;;;7.60;99.90;;;;;;5049069;28;20990;-80
2021/11/05 00:28:07;;;;;;;2.97;1.50;;;7.80;99.90;;;;;;5043494;28;20475;-80
2021/11/05 00:30:36;;;;;;;4.50;1.87;;;7.80;1.00;;;;;;5048821;28;20559;-79
2021/11/05 00:33:04;;;;;;;2.07;1.90;;;7.70;99.90;;;;;;5050783;28;20446;-80
2021/11/05 00:35:33;;;;;;;1.90;1.47;;;7.90;1.00;;;;;;5041779;28;20447;-78
2021/11/05 00:38:01;;;;;;;1.80;1.43;;;7.90;1.00;;;;;;5049201;28;20444;-80
2021/11/05 00:40:31;;;;;;;2.90;1.63;;;7.90;99.90;;;;;;5046238;28;20451;-81
2021/11/05 00:42:59;;;;;;;1.77;1.67;;;8.00;99.90;;;;;;5046157;28;20455;-80
2021/11/05 00:45:27;;;;;;;2.50;1.50;;;8.30;99.90;;;;;;5047374;28;20460;-78
2021/11/05 00:47:57;;;;;;;2.23;2.03;;;8.00;99.90;;;;;;5052010;28;20540;-79
2021/11/05 00:50:25;;;;;;;1.67;1.23;;;8.10;99.90;;;;;;5038816;28;20519;-79
2021/11/05 00:52:56;;;;;;;1.37;1.20;;;8.00;99.90;;;;;;5048697;28;20448;-79
2021/11/05 00:55:24;;;;;;;1.43;1.30;;;8.00;99.90;;;;;;5049246;28;20463;-79
2021/11/05 00:57:52;;;;;;;1.30;1.20;;;7.90;1.00;;;;;;5049149;28;20452;-79
2021/11/05 01:00:21;;;;;;;1.40;1.30;;;7.80;1.00;;;;;;5042445;28;20902;-79
2021/11/05 01:02:49;;;;;;;1.53;1.30;;;7.90;1.00;;;;;;5049428;28;20506;-79
2021/11/05 01:05:19;;;;;;;1.63;1.50;;;7.90;1.00;;;;;;5041214;28;20452;-79
2021/11/05 01:07:47;;;;;;;1.77;1.50;;;7.90;1.00;;;;;;5049888;28;20488;-79
2021/11/05 01:10:15;;;;;;;1.40;1.30;;;8.00;99.90;;;;;;5042918;28;20485;-80
2021/11/05 01:12:43;;;;;;;2.20;1.37;;;8.10;99.90;;;;;;5049814;28;20517;-79
2021/11/05 01:15:13;;;;;;;2.27;1.40;;;8.30;99.90;;;;;;5040043;28;20470;-80
2021/11/05 01:17:42;;;;;;;4.80;1.50;;;8.30;99.90;;;;;;5049776;28;20859;-79
2021/11/05 01:20:12;;;;;;;1.70;1.60;;;8.30;99.90;;;;;;5044132;28;21260;-78
2021/11/05 01:22:42;;;;;;;1.30;1.20;;;8.10;99.90;;;;;;5042918;28;20973;-80
2021/11/05 01:25:11;;;;;;;1.60;1.50;;;8.10;99.90;;;;;;5046853;28;20454;-80
2021/11/05 01:27:39;;;;;;;1.40;1.30;;;8.10;99.90;;;;;;5048829;28;20463;-80
2021/11/05 01:30:08;;;;;;;1.40;1.30;;;8.10;99.90;;;;;;5047583;28;20480;-81
2021/11/05 01:32:37;;;;;;;1.83;1.30;;;8.20;99.90;;;;;;5051324;28;20456;-81
2021/11/05 01:35:11;;;;;;;1.60;1.50;;;8.20;99.90;;;;;;5044812;28;20979;-80
2021/11/05 01:37:39;;;;;;;1.37;1.27;;;8.00;99.90;;;;;;5048479;28;20562;-80
2021/11/05 01:40:10;;;;;;;1.57;1.10;;;7.80;1.00;;;;;;5046408;28;20493;-81
2021/11/05 01:42:40;;;;;;;1.30;1.20;;;8.00;1.00;;;;;;5041851;28;20453;-81
2021/11/05 01:45:09;;;;;;;2.87;1.37;;;8.20;99.90;;;;;;5042680;28;20947;-78
2021/11/05 01:47:39;;;;;;;2.23;1.70;;;8.10;99.90;;;;;;5049029;28;21020;-79
2021/11/05 01:50:08;;;;;;;1.20;1.10;;;8.10;99.90;;;;;;5049189;28;20489;-79
2021/11/05 01:52:39;;;;;;;1.63;1.20;;;8.30;99.90;;;;;;5046943;28;20553;-79
2021/11/05 01:55:11;;;;;;;1.60;1.50;;;8.20;99.90;;;;;;5046240;28;20471;-79
2021/11/05 01:57:39;;;;;;;1.83;1.40;;;8.30;99.90;;;;;;5048672;28;20461;-79
2021/11/05 02:00:10;;;;;;;2.53;1.40;;;8.20;1.00;;;;;;5038373;28;20477;-79
2021/11/05 02:02:38;;;;;;;2.53;1.20;;;8.20;1.00;;;;;;5049195;28;20486;-79
2021/11/05 02:05:10;;;;;;;1.53;1.43;;;8.30;1.00;;;;;;5040191;28;20445;-80
2021/11/05 02:07:41;;;;;;;1.17;1.10;;;8.40;1.00;;;;;;5043997;28;20455;-78
2021/11/05 02:10:12;;;;;;;1.50;1.40;;;8.40;1.00;;;;;;5043400;28;20805;-78
2021/11/05 02:12:40;;;;;;;1.67;1.47;;;8.10;38.00;;;;;;5045558;28;20446;-79
2021/11/05 02:15:10;;;;;;;1.13;1.03;;;8.00;99.90;;;;;;5036695;28;20460;-78
2021/11/05 02:17:39;;;;;;;1.30;1.20;;;8.20;99.90;;;;;;5043510;28;20448;-79
2021/11/05 02:20:09;;;;;;;1.20;1.10;;;8.00;99.90;;;;;;5048544;28;20483;-79
2021/11/05 02:22:39;;;;;;;1.23;1.10;;;8.10;1.00;;;;;;5044229;28;20964;-79
2021/11/05 02:25:08;;;;;;;1.10;1.00;;;8.10;99.90;;;;;;5047559;28;20550;-79
2021/11/05 02:27:36;;;;;;;1.20;1.10;;;8.10;1.00;;;;;;5043167;28;20456;-81
2021/11/05 02:30:07;;;;;;;1.23;1.10;;;8.10;1.00;;;;;;5040078;28;20482;-80
2021/11/05 02:32:36;;;;;;;1.30;1.20;;;8.10;99.90;;;;;;5041932;28;20467;-79
2021/11/05 02:35:10;;;;;;;2.03;1.40;;;8.00;1.00;;;;;;5045019;28;20951;-80
2021/11/05 02:37:41;;;;;;;1.33;1.00;;;7.90;99.90;;;;;;5050263;28;20451;-80
2021/11/05 02:40:10;;;;;;;1.27;1.17;;;8.00;99.90;;;;;;5047268;28;20479;-80
2021/11/05 02:42:39;;;;;;;1.30;1.20;;;8.10;1.00;;;;;;5044928;28;20448;-80
2021/11/05 02:45:09;;;;;;;1.37;1.27;;;8.00;1.00;;;;;;5044544;28;20440;-79
2021/11/05 02:47:38;;;;;;;1.57;1.00;;;8.30;1.00;;;;;;5037929;28;20533;-80
2021/11/05 02:50:08;;;;;;;1.60;1.50;;;8.20;1.00;;;;;;5046535;28;20479;-78
2021/11/05 02:52:38;;;;;;;1.50;1.40;;;8.40;99.90;;;;;;5040450;28;20535;-79
2021/11/05 02:55:09;;;;;;;0.90;0.90;;;8.80;1.00;;;;;;5044669;28;20551;-79
2021/11/05 02:57:38;;;;;;;1.57;1.47;;;8.40;1.00;;;;;;5038980;28;20967;-78
2021/11/05 03:00:08;;;;;;;1.37;1.03;;;8.40;84.50;;;;;;5049641;28;20471;-78
2021/11/05 03:02:37;;;;;;;1.87;1.20;;;8.40;99.90;;;;;;5045412;28;20454;-80
2021/11/05 03:05:09;;;;;;;1.53;1.40;;;8.30;99.90;;;;;;5039447;28;20462;-79
2021/11/05 03:07:40;;;;;;;1.40;1.30;;;8.40;99.90;;;;;;5043972;28;20535;-79
2021/11/05 03:10:09;;;;;;;1.33;1.10;;;8.60;1.00;;;;;;5051725;28;20488;-79
2021/11/05 03:12:37;;;;;;;1.43;1.17;;;8.40;1.00;;;;;;5048454;28;20463;-79
2021/11/05 03:15:06;;;;;;;1.27;1.07;;;8.40;99.90;;;;;;5045181;28;20953;-79
2021/11/05 03:17:36;;;;;;;1.10;1.10;;;8.50;99.90;;;;;;5048774;28;20808;-80
2021/11/05 03:20:06;;;;;;;1.70;1.60;;;8.70;1.00;;;;;;5040071;28;20470;-79
2021/11/05 03:22:34;;;;;;;1.53;1.10;;;8.70;99.90;;;;;;5040882;28;20449;-78
2021/11/05 03:25:05;;;;;;;1.10;1.00;;;8.60;1.00;;;;;;5045886;28;20469;-79
2021/11/05 03:27:33;;;;;;;1.20;1.10;;;8.40;1.00;;;;;;5039792;28;20459;-78
2021/11/05 03:30:02;;;;;;;1.23;0.90;;;8.30;77.90;;;;;;5041341;28;20578;-79
2021/11/05 03:32:30;;;;;;;1.10;1.00;;;8.40;76.30;;;;;;5045220;28;20440;-79
2021/11/05 03:34:58;;;;;;;1.07;0.97;;;8.70;1.00;;;;;;5046090;28;20526;-79
2021/11/05 03:37:27;;;;;;;1.00;0.90;;;8.80;99.90;;;;;;5040491;28;20456;-79
2021/11/05 03:39:55;;;;;;;1.00;1.00;;;8.60;1.00;;;;;;5044800;28;20469;-80
2021/11/05 03:42:24;;;;;;;1.40;0.90;;;8.30;1.00;;;;;;5039264;28;20494;-79
2021/11/05 03:44:53;;;;;;;2.13;1.13;;;8.20;99.90;;;;;;5042718;28;20452;-79
2021/11/05 03:47:21;;;;;;;1.60;1.50;;;8.00;1.00;;;;;;5042452;28;20456;-79
2021/11/05 03:49:49;;;;;;;1.20;1.10;;;8.20;1.00;;;;;;5045841;28;20482;-79
2021/11/05 03:52:18;;;;;;;1.33;1.23;;;8.20;99.90;;;;;;5048807;28;20452;-79
2021/11/05 03:54:46;;;;;;;2.20;1.20;;;8.20;99.90;;;;;;5041574;28;20460;-78
2021/11/05 03:57:14;;;;;;;1.63;1.30;;;8.30;99.90;;;;;;5033601;28;20457;-79
2021/11/05 03:59:44;;;;;;;0.80;0.80;;;8.40;47.30;;;;;;5044481;28;20475;-79
2021/11/05 04:02:12;;;;;;;1.67;1.20;;;8.30;40.60;;;;;;5043129;28;20445;-79
2021/11/05 04:04:40;;;;;;;1.00;1.00;;;8.30;1.00;;;;;;5038030;28;20449;-79
2021/11/05 04:07:08;;;;;;;1.10;1.10;;;8.30;71.20;;;;;;5045317;28;20451;-78
2021/11/05 04:09:36;;;;;;;0.90;0.90;;;8.20;66.80;;;;;;5036866;28;20487;-79
2021/11/05 04:12:05;;;;;;;1.10;0.90;;;8.10;1.00;;;;;;5038301;28;20459;-78
2021/11/05 04:14:34;;;;;;;1.43;1.17;;;8.20;99.90;;;;;;5046085;28;20453;-78
2021/11/05 04:17:03;;;;;;;1.07;1.07;;;8.30;5.60;;;;;;5039125;28;20798;-79
2021/11/05 04:19:32;;;;;;;1.20;1.10;;;8.40;1.00;;;;;;5038404;28;20470;-79
2021/11/05 04:22:00;;;;;;;0.80;0.80;;;8.60;1.00;;;;;;5042728;28;20473;-79
2021/11/05 04:24:28;;;;;;;1.10;1.00;;;8.50;99.90;;;;;;5044111;28;20999;-79
2021/11/05 04:26:57;;;;;;;1.53;0.83;;;8.70;99.90;;;;;;5039768;28;20456;-79
2021/11/05 04:29:26;;;;;;;0.70;0.70;;;8.60;99.90;;;;;;5047002;28;20484;-80
2021/11/05 04:31:54;;;;;;;0.70;0.70;;;8.70;99.90;;;;;;5045427;28;20455;-80
2021/11/05 04:34:24;;;;;;;0.80;0.80;;;8.50;99.90;;;;;;5042970;28;20970;-80
2021/11/05 04:36:52;;;;;;;1.10;1.00;;;8.60;99.90;;;;;;5043757;28;20818;-79
2021/11/05 04:39:21;;;;;;;1.10;0.93;;;8.40;99.90;;;;;;5047297;28;20472;-79
2021/11/05 04:41:50;;;;;;;1.93;1.00;;;8.30;1.00;;;;;;5046135;28;20459;-80
2021/11/05 04:44:18;;;;;;;1.47;1.10;;;8.10;1.00;;;;;;5043262;28;20518;-81
2021/11/05 04:46:47;;;;;;;0.77;0.77;;;8.30;4.50;;;;;;5046922;28;20463;-80
2021/11/05 04:49:16;;;;;;;1.00;0.80;;;8.60;1.00;;;;;;5042156;28;20873;-80
2021/11/05 04:51:45;;;;;;;0.80;0.80;;;8.70;99.90;;;;;;5033442;28;20533;-80
2021/11/05 04:54:13;;;;;;;1.40;1.30;;;8.80;99.90;;;;;;5040660;28;21258;-79
2021/11/05 04:56:41;;;;;;;2.60;1.00;;;8.60;99.90;;;;;;5048720;28;20491;-80
2021/11/05 04:59:10;;;;;;;1.10;1.00;;;8.40;1.00;;;;;;5050118;28;20468;-80
2021/11/05 05:01:39;;;;;;;0.70;0.70;;;8.40;99.90;;;;;;5042350;28;20459;-79
2021/11/05 05:04:07;;;;;;;1.00;1.00;;;8.50;1.00;;;;;;5047892;28;20461;-80
2021/11/05 05:06:35;;;;;;;1.43;1.33;;;8.60;1.00;;;;;;5045404;28;20463;-79
2021/11/05 05:09:05;;;;;;;1.00;0.90;;;8.60;1.00;;;;;;5048664;28;20480;-79
2021/11/05 05:11:33;;;;;;;1.03;1.00;;;8.50;1.00;;;;;;5049466;28;20581;-79
2021/11/05 05:14:02;;;;;;;0.93;0.80;;;8.30;99.90;;;;;;5044678;28;21010;-79
2021/11/05 05:16:31;;;;;;;1.23;1.00;;;8.40;99.90;;;;;;5047657;28;20456;-78
2021/11/05 05:18:59;;;;;;;1.10;1.10;;;8.50;99.90;;;;;;5045208;28;20488;-79
2021/11/05 05:21:28;;;;;;;1.50;1.40;;;8.40;99.90;;;;;;5044193;28;20448;-79
2021/11/05 05:23:56;;;;;;;3.00;1.37;;;8.60;99.90;;;;;;5036869;28;20488;-80
2021/11/05 05:26:25;;;;;;;1.17;1.03;;;8.50;99.90;;;;;;5044622;28;20460;-79
2021/11/05 05:28:54;;;;;;;1.23;1.13;;;8.60;99.90;;;;;;5044812;28;20499;-79
2021/11/05 05:31:22;;;;;;;1.40;1.30;;;8.60;99.90;;;;;;5044691;28;20999;-78
2021/11/05 05:33:50;;;;;;;1.23;1.13;;;8.60;99.90;;;;;;5043027;28;21010;-80
2021/11/05 05:36:18;;;;;;;2.40;1.70;;;8.70;99.90;;;;;;5039743;28;20440;-79
2021/11/05 05:38:46;;;;;;;1.63;1.50;;;8.80;4.70;;;;;;5054198;28;20474;-79
2021/11/05 05:41:15;;;;;;;1.40;1.30;;;8.70;1.00;;;;;;5036103;28;20886;-80
2021/11/05 05:43:45;;;;;;;3.10;1.17;;;8.60;14.10;;;;;;5045406;28;20455;-80
2021/11/05 05:46:13;;;;;;;2.30;1.70;;;8.70;99.90;;;;;;5051176;28;20533;-79
2021/11/05 05:48:41;;;;;;;1.47;1.37;;;8.80;1.00;;;;;;5046547;28;20473;-80
2021/11/05 05:51:10;;;;;;;1.77;1.47;;;8.50;1.00;;;;;;5043586;28;20473;-80
2021/11/05 05:53:38;;;;;;;1.63;1.40;;;8.30;99.90;;;;;;5057062;28;20447;-80
2021/11/05 05:56:06;;;;;;;1.60;1.50;;;8.40;99.90;;;;;;5053063;28;20453;-79
2021/11/05 05:58:35;;;;;;;1.80;1.20;;;8.50;99.90;;;;;;5038105;28;20468;-80
2021/11/05 06:01:05;;;;;;;1.33;1.23;;;8.70;99.90;;;;;;5049440;28;20453;-80
2021/11/05 06:03:33;;;;;;;3.60;1.17;;;8.70;1.00;;;;;;5047227;28;20824;-80
2021/11/05 06:06:01;;;;;;;1.93;1.50;;;8.70;1.00;;;;;;5042356;28;20461;-82
2021/11/05 06:08:34;;;;;;;1.63;1.53;;;8.60;99.90;;;;;;5048864;28;20485;-81
2021/11/05 06:11:02;;;;;;;1.20;1.10;;;8.60;99.90;;;;;;5038183;28;20487;-80
2021/11/05 06:13:30;;;;;;;1.20;1.10;;;8.70;99.90;;;;;;5036747;28;20534;-82
2021/11/05 06:15:59;;;;;;;2.43;1.33;;;8.50;99.90;;;;;;5049335;28;20468;-80
2021/11/05 06:18:28;;;;;;;1.40;1.30;;;8.50;81.40;;;;;;5044137;28;20569;-80
2021/11/05 06:20:56;;;;;;;1.97;1.53;;;8.50;99.90;;;;;;5049234;28;20949;-81
2021/11/05 06:23:24;;;;;;;1.40;1.30;;;8.30;1.00;;;;;;5044803;28;20511;-80
2021/11/05 06:25:53;;;;;;;1.30;1.20;;;8.40;1.00;;;;;;5044336;28;20456;-79
2021/11/05 06:28:21;;;;;;;1.20;1.10;;;8.40;99.90;;;;;;5034959;28;20453;-79
2021/11/05 06:30:49;;;;;;;1.67;1.30;;;8.40;1.00;;;;;;5043993;28;21081;-78
2021/11/05 06:33:18;;;;;;;1.20;1.10;;;8.40;99.90;;;;;;5046668;28;21006;-80
2021/11/05 06:35:48;;;;;;;1.20;1.10;;;8.30;99.90;;;;;;5040739;28;20455;-80
2021/11/05 06:38:17;;;;;;;2.40;1.33;;;8.50;99.90;;;;;;5043151;28;20453;-79
2021/11/05 06:40:45;;;;;;;1.20;1.10;;;8.20;1.00;;;;;;5040157;28;20456;-79
2021/11/05 06:43:13;;;;;;;1.50;1.40;;;8.10;99.90;;;;;;5041360;28;20515;-79
2021/11/05 06:45:41;;;;;;;1.40;1.30;;;8.00;99.90;;;;;;5042334;28;20460;-80
2021/11/05 06:48:10;;;;;;;2.03;1.20;;;8.00;99.90;;;;;;5039489;28;20857;-80
2021/11/05 06:50:40;;;;;;;1.00;1.00;;;7.90;1.00;;;;;;5046023;28;20991;-77
2021/11/05 06:53:10;;;;;;;2.03;1.30;;;8.10;1.00;;;;;;5040607;28;21092;-79
2021/11/05 06:55:39;;;;;;;1.80;1.60;;;8.40;1.00;;;;;;5042681;28;21228;-78
2021/11/05 06:58:08;;;;;;;1.50;1.40;;;8.50;1.00;;;;;;5035121;28;20748;-77
2021/11/05 07:00:36;;;;;;;1.43;1.10;;;8.60;99.90;;;;;;5047278;28;20530;-79
2021/11/05 07:03:05;;;;;;;1.23;1.13;;;8.80;1.00;;;;;;5051722;28;20503;-79
2021/11/05 07:05:34;;;;;;;1.10;1.00;;;8.80;1.00;;;;;;5048689;28;20479;-79
2021/11/05 07:08:04;;;;;;;1.20;1.10;;;8.70;1.00;;;;;;5054349;28;20474;-79
2021/11/05 07:10:34;;;;;;;3.90;1.40;;;8.60;26.50;;;;;;5047211;28;20469;-79
2021/11/05 07:13:03;;;;;;;1.00;1.00;;;8.50;1.00;;;;;;5037189;28;20476;-79
2021/11/05 07:15:31;;;;;;;1.37;1.00;;;8.40;99.90;;;;;;5044150;28;20457;-78
2021/11/05 07:18:01;;;;;;;1.40;1.10;;;8.40;99.90;;;;;;5044523;28;20466;-80
2021/11/05 07:20:29;;;;;;;1.70;1.00;;;8.50;99.90;;;;;;5037113;28;20479;-79
2021/11/05 07:22:57;;;;;;;1.03;0.90;;;8.60;1.00;;;;;;5036440;28;20462;-79
2021/11/05 07:25:26;;;;;;;0.97;0.97;;;8.40;99.90;;;;;;5036391;28;20570;-79
2021/11/05 07:27:57;;;;;;;1.33;1.20;;;8.40;99.90;;;;;;5039254;28;20964;-78
2021/11/05 07:30:26;;;;;;;2.43;1.20;;;8.70;99.90;;;;;;5036571;28;22418;-75
2021/11/05 07:32:54;;;;;;;1.33;1.23;;;8.90;1.00;;;;;;5048294;28;20494;-82
2021/11/05 07:35:24;;;;;;;1.53;1.40;;;9.10;1.00;;;;;;5045966;28;20486;-78
2021/11/05 07:37:53;;;;;;;1.50;1.33;;;9.20;99.90;;;;;;5040394;28;20444;-79
2021/11/05 07:40:21;;;;;;;1.80;1.20;;;9.30;99.90;;;;;;5037178;28;20492;-80
2021/11/05 07:42:50;;;;;;;1.00;0.90;;;9.30;99.90;;;;;;5039944;28;20480;-79
2021/11/05 07:45:20;;;;;;;1.60;1.13;;;9.30;99.90;;;;;;5039302;28;20910;-79
2021/11/05 07:47:49;;;;;;;1.00;0.90;;;9.20;99.90;;;;;;5038586;28;20454;-80
2021/11/05 07:50:19;;;;;;;1.00;0.90;;;9.30;99.90;;;;;;5039985;28;20481;-79
2021/11/05 07:52:47;;;;;;;1.00;0.90;;;9.30;99.90;;;;;;5029782;28;20474;-78
2021/11/05 07:55:16;;;;;;;1.73;1.00;;;9.30;99.90;;;;;;5044856;28;20450;-78
2021/11/05 07:57:44;;;;;;;1.40;0.90;;;9.30;99.90;;;;;;5045115;28;20861;-79
2021/11/05 08:00:13;;;;;;;1.90;0.90;;;9.30;99.90;;;;;;5039754;28;20880;-79
2021/11/05 08:02:43;;;;;;;0.90;0.90;;;9.20;99.90;;;;;;5036666;28;20461;-80
2021/11/05 08:05:12;;;;;;;1.40;1.30;;;9.30;99.90;;;;;;5038599;28;20446;-79
2021/11/05 08:07:42;;;;;;;0.87;0.70;;;9.30;99.90;;;;;;5040443;28;20452;-80
2021/11/05 08:10:11;;;;;;;1.23;0.90;;;9.30;99.90;;;;;;5043424;28;20553;-80
2021/11/05 08:12:39;;;;;;;1.27;1.10;;;9.30;99.90;;;;;;5048276;28;20555;-79
2021/11/05 08:15:11;;;;;;;0.83;0.80;;;9.20;99.90;;;;;;5041468;28;20468;-79
2021/11/05 08:17:39;;;;;;;1.13;0.97;;;9.20;1.00;;;;;;5038687;28;20467;-80
2021/11/05 08:20:10;;;;;;;1.03;0.93;;;9.30;99.90;;;;;;5043066;28;20472;-80
2021/11/05 08:22:39;;;;;;;1.87;1.10;;;9.30;1.00;;;;;;5035457;28;20511;-79
2021/11/05 08:25:08;;;;;;;1.00;0.90;;;9.40;99.90;;;;;;5027318;28;20474;-79
2021/11/05 08:27:36;;;;;;;1.40;0.87;;;9.50;99.90;;;;;;5039833;28;20465;-80
2021/11/05 08:30:08;;;;;;;0.90;0.80;;;9.60;99.90;;;;;;5047074;28;20502;-79
2021/11/05 08:32:36;;;;;;;1.73;1.10;;;9.70;99.90;;;;;;5043438;28;20471;-79
2021/11/05 08:35:05;;;;;;;1.27;1.17;;;9.60;99.90;;;;;;5051513;28;20538;-78
2021/11/05 08:37:36;;;;;;;1.10;0.80;;;9.70;99.90;;;;;;5042998;28;20462;-78
2021/11/05 08:40:05;;;;;;;1.20;1.10;;;9.80;94.50;;;;;;5051883;28;20485;-79
2021/11/05 08:42:34;;;;;;;0.90;0.80;;;9.70;99.90;;;;;;5042876;28;20442;-78
2021/11/05 08:45:02;;;;;;;1.63;1.40;;;9.70;99.90;;;;;;5042689;28;20458;-78
2021/11/05 08:47:30;;;;;;;1.37;1.27;;;9.80;99.90;;;;;;5051825;28;20458;-78
2021/11/05 08:49:58;;;;;;;1.17;1.10;;;9.80;99.90;;;;;;5046191;28;20539;-78
2021/11/05 08:52:26;;;;;;;0.80;0.77;;;9.80;54.70;;;;;;5039492;28;20492;-75
2021/11/05 08:54:58;;;;;;;0.90;0.90;;;9.80;99.90;;;;;;5051241;28;20517;-75
2021/11/05 08:57:26;;;;;;;0.97;0.97;;;9.70;99.90;;;;;;5055079;28;20868;-74
2021/11/05 08:59:54;;;;;;;1.20;1.10;;;9.70;99.90;;;;;;5048530;28;20960;-76
2021/11/05 09:02:22;;;;;;;2.40;1.17;;;9.80;99.90;;;;;;5062505;28;21881;-75
2021/11/05 09:04:51;;;;;;;1.20;1.10;;;9.80;99.90;;;;;;5053097;28;20466;-76
2021/11/05 09:07:19;;;;;;;1.00;0.90;;;9.70;1.00;;;;;;5056582;28;20547;-76
2021/11/05 09:09:47;;;;;;;1.00;0.90;;;9.80;1.00;;;;;;5040628;28;20525;-76
2021/11/05 09:12:17;;;;;;;0.93;0.83;;;9.90;1.00;;;;;;5051224;28;20562;-76
2021/11/05 09:14:45;;;;;;;1.20;1.07;;;9.90;1.00;;;;;;5049031;28;20864;-76
2021/11/05 09:17:15;;;;;;;0.80;0.80;;;9.90;1.00;;;;;;5048050;28;20468;-76
2021/11/05 09:19:43;;;;;;;0.80;0.80;;;9.90;1.00;;;;;;5053276;28;20475;-75
2021/11/05 09:22:12;;;;;;;1.43;1.20;;;10.00;1.00;;;;;;5043176;28;20930;-75
2021/11/05 09:24:40;;;;;;;0.87;0.83;;;10.10;1.00;;;;;;5053216;28;20460;-76
2021/11/05 09:27:09;;;;;;;0.80;0.80;;;10.10;51.30;;;;;;5055849;28;20449;-76
2021/11/05 09:29:39;;;;;;;1.37;1.10;;;10.10;99.90;;;;;;5051040;28;20500;-76
2021/11/05 09:32:08;;;;;;;0.80;0.80;;;10.10;26.60;;;;;;5048674;28;20473;-76
2021/11/05 09:34:36;;;;;;;0.70;0.70;;;10.00;1.00;;;;;;5051461;28;20485;-76
2021/11/05 09:37:06;;;;;;;1.00;0.90;;;10.00;59.90;;;;;;5046056;28;20456;-75
2021/11/05 09:39:35;;;;;;;1.00;0.90;;;10.00;1.00;;;;;;5057429;28;20473;-76
2021/11/05 09:42:04;;;;;;;0.80;0.80;;;10.10;46.10;;;;;;5051170;28;20446;-76
2021/11/05 09:44:33;;;;;;;1.00;0.93;;;10.00;1.00;;;;;;5053834;28;20462;-76
2021/11/05 09:47:04;;;;;;;0.80;0.80;;;10.10;1.00;;;;;;5045284;28;20460;-76
2021/11/05 09:49:34;;;;;;;1.07;0.70;;;10.30;1.00;;;;;;5056589;28;20470;-75
2021/11/05 09:52:04;;;;;;;1.23;0.70;;;10.40;1.00;;;;;;5051616;28;20948;-76
2021/11/05 09:54:34;;;;;;;2.70;0.80;;;10.40;1.00;;;;;;5043073;28;20442;-76
2021/11/05 09:57:04;;;;;;;1.00;0.80;;;10.50;99.90;;;;;;5050546;28;20993;-75
2021/11/05 09:59:32;;;;;;;1.00;0.90;;;10.70;1.00;;;;;;5050234;28;20478;-76
2021/11/05 10:02:01;;;;;;;1.70;0.80;;;10.70;68.20;;;;;;5049461;28;20455;-76
2021/11/05 10:04:31;;;;;;;1.80;1.07;;;10.70;99.90;;;;;;5048790;28;20456;-78
2021/11/05 10:07:05;;;;;;;1.53;1.10;;;10.70;1.00;;;;;;5046229;28;21138;-76
2021/11/05 10:09:38;;;;;;;3.03;1.10;;;10.60;1.00;;;;;;5043506;28;20472;-77
2021/11/05 10:12:12;;;;;;;1.63;0.90;;;10.80;97.90;;;;;;5031037;28;20457;-77
2021/11/05 10:14:42;;;;;;;0.87;0.87;;;10.90;75.20;;;;;;5035290;28;20955;-76
2021/11/05 10:17:12;;;;;;;1.30;0.90;;;11.00;1.00;;;;;;5048847;28;20478;-77
2021/11/05 10:19:53;;;;;;;0.80;0.80;;;11.00;1.00;;;;;;5040839;28;20460;-76
2021/11/05 10:22:46;;;;;;;1.20;0.90;;;11.00;1.00;;;;;;5036880;28;20534;-76
2021/11/05 10:25:24;;;;;;;1.10;0.93;;;11.10;1.00;;;;;;5047891;28;20474;-77
2021/11/05 10:28:10;;;;;;;1.30;1.10;;;11.10;53.80;;;;;;5047298;28;20467;-76
2021/11/05 10:30:56;;;;;;;1.10;1.00;;;11.10;1.00;;;;;;5032174;28;20463;-76
2021/11/05 10:33:28;;;;;;;1.30;1.10;;;11.10;1.00;;;;;;5035564;28;20545;-76
2021/11/05 10:36:04;;;;;;;1.93;1.30;;;11.10;1.00;;;;;;5037391;28;20506;-76
2021/11/05 10:38:34;;;;;;;1.00;0.90;;;11.40;1.00;;;;;;5049622;28;20487;-77
2021/11/05 10:41:05;;;;;;;0.90;0.90;;;11.10;1.00;;;;;;5049965;28;20852;-76
2021/11/05 10:43:37;;;;;;;1.40;1.27;;;11.10;11.90;;;;;;5034804;28;20682;-76
2021/11/05 10:46:06;;;;;;;0.80;0.80;;;11.10;1.00;;;;;;5042965;28;20796;-76
2021/11/05 10:48:40;;;;;;;0.80;0.80;;;11.10;1.00;;;;;;5048218;28;20456;-76
2021/11/05 10:51:10;;;;;;;0.87;0.87;;;11.10;1.00;;;;;;5043198;28;20449;-77
2021/11/05 10:53:40;;;;;;;0.90;0.70;;;11.10;1.00;;;;;;5043485;28;20460;-76
2021/11/05 10:56:10;;;;;;;1.33;0.80;;;11.20;1.00;;;;;;5049269;28;20455;-76
2021/11/05 10:58:41;;;;;;;1.10;1.00;;;11.20;1.00;;;;;;5036274;28;20464;-76
2021/11/05 11:01:14;;;;;;;0.90;0.70;;;11.20;1.00;;;;;;5046681;28;20937;-77
2021/11/05 11:03:47;;;;;;;0.67;0.67;;;11.20;1.00;;;;;;5042446;28;20463;-77
2021/11/05 11:06:19;;;;;;;0.80;0.80;;;11.20;1.00;;;;;;5042794;28;20460;-77
2021/11/05 11:08:48;;;;;;;0.90;0.90;;;11.20;1.00;;;;;;5036848;28;20468;-76
2021/11/05 11:11:20;;;;;;;1.00;0.60;;;11.20;1.00;;;;;;5049079;28;20460;-77
2021/11/05 11:13:50;;;;;;;2.00;1.00;;;11.20;1.00;;;;;;5046156;28;20482;-76
2021/11/05 11:16:21;;;;;;;7.47;4.10;;;11.20;1.00;;;;;;5026409;28;20448;-76
2021/11/05 11:18:56;;;;;;;4.47;2.53;;;11.20;1.00;;;;;;5045456;28;20485;-76
2021/11/05 11:21:29;;;;;;;2.87;1.63;;;11.20;1.00;;;;;;5043818;28;20461;-76
2021/11/05 11:23:58;;;;;;;7.50;2.17;;;11.20;1.00;;;;;;5042820;28;20450;-76
2021/11/05 11:26:27;;;;;;;1.67;1.17;;;11.20;1.00;;;;;;5049042;28;20566;-76
2021/11/05 11:28:56;;;;;;;1.23;1.13;;;11.20;1.00;;;;;;5048441;28;20474;-76
2021/11/05 11:31:26;;;;;;;1.47;1.37;;;11.20;1.00;;;;;;5047984;28;20456;-76
2021/11/05 11:34:01;;;;;;;1.10;1.00;;;11.20;1.00;;;;;;5038382;28;20821;-76
2021/11/05 11:36:33;;;;;;;1.30;1.13;;;11.30;1.00;;;;;;5045749;28;20456;-76
2021/11/05 11:39:05;;;;;;;1.60;1.40;;;11.20;1.00;;;;;;5033335;28;20471;-76
2021/11/05 11:41:34;;;;;;;1.30;1.20;;;11.20;1.00;;;;;;5047767;28;20463;-76
2021/11/05 11:44:04;;;;;;;1.23;1.10;;;11.20;1.00;;;;;;5047804;28;20477;-76
2021/11/05 11:46:53;;;;;;;1.83;1.10;;;11.20;1.00;;;;;;5043756;28;21091;-75
2021/11/05 11:49:43;;;;;;;1.20;1.10;;;11.20;1.00;;;;;;5046655;28;21201;-76
2021/11/05 11:52:33;;;;;;;1.27;1.03;;;11.20;1.00;;;;;;5028989;28;20466;-77
2021/11/05 11:55:17;;;;;;;1.87;1.30;;;11.20;1.00;;;;;;5042509;28;20480;-76
2021/11/05 11:57:46;;;;;;;1.87;1.43;;;11.20;1.00;;;;;;5035067;28;20953;-76
2021/11/05 12:00:17;;;;;;;1.67;1.20;;;11.30;1.00;;;;;;5042499;28;20474;-76
2021/11/05 12:02:47;;;;;;;45.27;15.97;;;11.40;1.00;;;;;;5046750;28;21027;-76
2021/11/05 12:05:38;;;;;;;6.27;2.83;;;11.60;1.00;;;;;;5041968;28;20442;-76
2021/11/05 12:08:22;;;;;;;3.70;1.50;;;11.60;1.00;;;;;;5032978;28;20947;-77
2021/11/05 12:10:54;;;;;;;4.27;1.40;;;11.70;99.90;;;;;;5034686;28;20450;-76
2021/11/05 12:13:44;;;;;;;1.70;1.30;;;11.70;99.90;;;;;;5047514;28;20881;-76
2021/11/05 12:16:21;;;;;;;2.00;1.37;;;11.70;99.90;;;;;;5040387;28;20456;-77
2021/11/05 12:19:08;;;;;;;2.30;1.50;;;11.70;99.90;;;;;;5038981;28;20506;-76
2021/11/05 12:21:38;;;;;;;1.53;1.10;;;11.70;99.90;;;;;;5047760;28;20892;-76
2021/11/05 12:24:28;;;;;;;1.50;1.30;;;11.70;99.90;;;;;;5044060;28;20962;-76
2021/11/05 12:27:00;;;;;;;1.60;1.23;;;11.70;99.90;;;;;;5041990;28;20871;-76
2021/11/05 12:30:09;;;;;;;2.90;1.70;;;11.70;99.90;;;;;;5040111;28;21193;-75
2021/11/05 12:32:39;;;;;;;4.40;1.70;;;11.60;99.90;;;;;;5034753;28;20978;-75
2021/11/05 12:35:23;;;;;;;2.73;1.90;;;11.50;99.90;;;;;;5047023;28;20474;-76
2021/11/05 12:37:58;;;;;;;2.80;1.70;;;11.60;99.90;;;;;;5047746;28;20480;-77
2021/11/05 12:40:34;;;;;;;1.87;1.67;;;11.60;99.90;;;;;;5041044;28;20555;-77
2021/11/05 12:43:05;;;;;;;2.80;1.80;;;11.60;99.90;;;;;;5045963;28;20451;-76
2021/11/05 12:45:49;;;;;;;1.60;1.50;;;11.50;99.90;;;;;;5047851;28;20447;-77
2021/11/05 12:48:18;;;;;;;2.37;2.00;;;11.60;99.90;;;;;;5044047;28;20989;-77
2021/11/05 12:50:48;;;;;;;4.57;1.83;;;11.60;99.90;;;;;;5042283;28;20458;-77
2021/11/05 12:53:23;;;;;;;2.70;1.63;;;11.60;99.90;;;;;;5040669;28;20452;-77
2021/11/05 12:55:53;;;;;;;2.47;2.27;;;11.70;99.90;;;;;;5047476;28;20525;-77
2021/11/05 12:58:29;;;;;;;2.17;1.60;;;11.70;99.90;;;;;;5047693;28;20969;-77
2021/11/05 13:01:06;;;;;;;2.87;2.60;;;11.80;99.90;;;;;;5048037;28;20793;-77
2021/11/05 13:03:35;;;;;;;2.03;1.50;;;11.80;99.90;;;;;;5041489;28;20456;-78
2021/11/05 13:06:03;;;;;;;2.20;1.60;;;11.80;99.90;;;;;;5038690;28;20502;-77
2021/11/05 13:08:34;;;;;;;2.00;1.60;;;11.80;99.90;;;;;;5042890;28;20483;-77
2021/11/05 13:11:06;;;;;;;2.00;1.37;;;11.80;99.90;;;;;;5042077;28;20825;-77
2021/11/05 13:13:34;;;;;;;2.20;2.07;;;11.80;99.90;;;;;;5039938;28;20459;-77